Time;durP1;ratioP1;P1;durP2;ratioP2;P2;SDS_P1;SDS_P2;PMS_P1;PMS_P2;Temp;Humidity;BMP_temperature;BMP_pressure;BME280_temperature;BME280_humidity;BME280_pressure;Samples;Min_cycle;Max_cycle;Signal;HPM_P1;HPM_P2
2022/07/22 00:01:25;;;;;;;5.27;4.63;;;;;;;21.07;57.71;99226.97;5090494;28;41459;-74
2022/07/22 00:03:53;;;;;;;4.63;4.23;;;;;;;21.02;57.97;99223.03;5093027;28;40027;-74
2022/07/22 00:06:21;;;;;;;5.53;5.03;;;;;;;21.03;57.70;99236.34;5092609;28;41776;-74
2022/07/22 00:08:49;;;;;;;5.07;4.47;;;;;;;21.00;57.89;99236.69;5091412;28;41628;-73
2022/07/22 00:11:18;;;;;;;4.50;3.97;;;;;;;20.97;57.88;99241.50;5091435;28;42346;-73
2022/07/22 00:13:46;;;;;;;4.83;4.37;;;;;;;20.95;57.44;99246.19;5091384;28;39670;-74
2022/07/22 00:16:15;;;;;;;4.63;4.20;;;;;;;20.92;57.55;99241.97;5091058;28;40858;-74
2022/07/22 00:18:43;;;;;;;4.63;4.27;;;;;;;20.89;57.57;99244.13;5091371;28;42619;-73
2022/07/22 00:21:10;;;;;;;4.53;4.13;;;;;;;20.85;57.46;99243.56;5074065;28;40887;-74
2022/07/22 00:23:38;;;;;;;5.40;4.27;;;;;;;20.83;58.42;99247.41;5090378;28;39133;-74
2022/07/22 00:26:06;;;;;;;4.47;4.07;;;;;;;20.77;58.01;99241.63;5092428;28;41823;-73
2022/07/22 00:28:36;;;;;;;4.60;4.20;;;;;;;20.74;58.39;99244.63;5074276;28;43851;-73
2022/07/22 00:31:04;;;;;;;4.70;4.30;;;;;;;20.70;58.42;99239.69;5091342;28;43243;-74
2022/07/22 00:33:31;;;;;;;4.90;4.40;;;;;;;20.69;58.87;99244.22;5091292;28;39969;-73
2022/07/22 00:35:59;;;;;;;5.57;5.00;;;;;;;20.67;59.32;99230.06;5091052;28;42827;-73
2022/07/22 00:38:27;;;;;;;5.27;4.80;;;;;;;20.66;59.69;99232.91;5091081;28;43767;-74
2022/07/22 00:40:55;;;;;;;5.03;4.60;;;;;;;20.62;60.08;99236.91;5091980;28;41955;-73
2022/07/22 00:43:23;;;;;;;4.60;4.20;;;;;;;20.58;60.20;99230.13;5091124;28;40983;-73
2022/07/22 00:45:52;;;;;;;5.17;4.70;;;;;;;20.56;60.21;99235.66;5074072;28;40732;-73
2022/07/22 00:48:20;;;;;;;4.87;4.47;;;;;;;20.53;60.05;99235.09;5090925;28;42899;-74
2022/07/22 00:50:48;;;;;;;7.10;5.87;;;;;;;20.51;59.96;99237.13;5090914;28;43247;-73
2022/07/22 00:53:17;;;;;;;5.00;4.20;;;;;;;20.43;60.34;99222.56;5091026;28;40020;-74
2022/07/22 00:55:45;;;;;;;4.67;4.27;;;;;;;20.43;61.13;99219.88;5090814;28;41923;-73
2022/07/22 00:58:13;;;;;;;5.60;5.10;;;;;;;20.41;62.03;99213.78;5073511;28;42740;-74
2022/07/22 01:00:40;;;;;;;5.10;4.70;;;;;;;20.39;61.92;99226.56;5091818;28;43200;-74
2022/07/22 01:03:10;;;;;;;4.80;4.30;;;;;;;20.37;61.39;99231.25;5090530;28;40039;-74
2022/07/22 01:05:38;;;;;;;4.50;4.10;;;;;;;20.34;60.96;99231.50;5091628;28;42573;-74
2022/07/22 01:08:06;;;;;;;5.10;4.60;;;;;;;20.33;62.18;99228.97;5090455;28;42809;-73
2022/07/22 01:10:34;;;;;;;5.97;4.63;;;;;;;20.30;62.92;99222.03;5090779;28;42801;-73
2022/07/22 01:13:02;;;;;;;4.10;3.80;;;;;;;20.24;63.69;99221.78;5090627;28;39911;-73
2022/07/22 01:15:30;;;;;;;5.30;4.80;;;;;;;20.25;62.99;99229.72;5073696;28;41870;-74
2022/07/22 01:17:57;;;;;;;5.63;4.63;;;;;;;20.21;62.94;99228.28;5090183;28;43738;-74
2022/07/22 01:20:27;;;;;;;4.83;4.43;;;;;;;20.19;63.72;99222.22;5090486;28;42655;-74
2022/07/22 01:22:55;;;;;;;5.20;4.70;;;;;;;20.17;64.48;99226.88;5072427;28;38900;-73
2022/07/22 01:25:22;;;;;;;5.47;4.13;;;;;;;20.14;64.27;99220.97;5090533;28;43036;-73
2022/07/22 01:27:51;;;;;;;5.27;4.77;;;;;;;20.11;64.43;99222.13;5090135;28;42750;-74
2022/07/22 01:30:19;;;;;;;5.13;4.63;;;;;;;20.08;64.96;99222.41;5073290;28;42306;-74
2022/07/22 01:32:47;;;;;;;5.43;4.33;;;;;;;20.06;64.45;99221.69;5073146;28;40686;-73
2022/07/22 01:35:15;;;;;;;5.00;4.50;;;;;;;20.03;64.34;99219.28;5090285;28;40668;-75
2022/07/22 01:37:44;;;;;;;6.50;4.00;;;;;;;19.99;64.39;99223.28;5073040;28;43119;-74
2022/07/22 01:40:13;;;;;;;4.63;4.17;;;;;;;19.97;64.70;99219.91;5090470;28;43291;-73
2022/07/22 01:42:41;;;;;;;5.00;4.50;;;;;;;19.93;64.93;99229.22;5090086;28;40908;-74
2022/07/22 01:45:10;;;;;;;4.10;3.80;;;;;;;19.89;64.76;99228.69;5090416;28;41707;-74
2022/07/22 01:47:38;;;;;;;4.30;3.90;;;;;;;19.86;64.63;99234.38;5072781;28;42743;-73
2022/07/22 01:50:09;;;;;;;4.27;3.87;;;;;;;19.83;64.59;99225.72;5090029;28;43197;-73
2022/07/22 01:52:37;;;;;;;4.87;4.37;;;;;;;19.78;66.15;99220.78;5072706;28;38967;-74
2022/07/22 01:55:08;;;;;;;6.03;4.77;;;;;;;19.76;66.61;99221.94;5073023;28;40626;-74
2022/07/22 01:57:37;;;;;;;4.83;4.43;;;;;;;19.73;66.12;99221.22;5072985;28;43667;-74
2022/07/22 02:00:16;;;;;;;4.83;3.73;;;;;;;19.71;65.70;99225.91;5087092;28;42299;-73
2022/07/22 02:02:48;;;;;;;4.40;4.00;;;;;;;19.65;65.59;99209.53;5089527;28;39967;-74
2022/07/22 02:05:17;;;;;;;5.47;4.83;;;;;;;19.63;67.28;99212.34;5073135;28;40740;-73
2022/07/22 02:07:45;;;;;;;5.63;4.40;;;;;;;19.58;66.99;99214.63;5089806;28;42960;-73
2022/07/22 02:10:15;;;;;;;4.83;3.97;;;;;;;19.59;66.45;99219.00;5089967;28;43305;-74
2022/07/22 02:12:43;;;;;;;4.70;4.20;;;;;;;19.48;66.61;99203.00;5089744;28;40055;-73
2022/07/22 02:15:11;;;;;;;5.10;4.60;;;;;;;19.56;67.39;99213.91;5089854;28;41863;-73
2022/07/22 02:17:40;;;;;;;5.10;4.60;;;;;;;19.56;67.42;99213.91;5072714;28;40992;-73
2022/07/22 02:20:10;;;;;;;4.90;4.50;;;;;;;19.53;67.53;99216.06;5089499;28;42426;-74
2022/07/22 02:22:38;;;;;;;6.63;4.63;;;;;;;19.51;67.04;99216.19;5088458;28;40880;-74
2022/07/22 02:25:06;;;;;;;4.20;3.80;;;;;;;19.47;67.26;99205.84;5074541;28;41627;-73
2022/07/22 02:27:35;;;;;;;6.17;4.67;;;;;;;19.46;67.56;99204.13;5093126;28;43780;-74
2022/07/22 02:30:03;;;;;;;5.03;4.27;;;;;;;19.40;67.17;99204.72;5094343;28;42321;-73
2022/07/22 02:32:31;;;;;;;4.30;3.90;;;;;;;19.42;67.59;99208.94;5093051;28;40023;-73
2022/07/22 02:34:59;;;;;;;4.63;3.93;;;;;;;19.39;67.09;99206.56;5093096;28;42518;-74
2022/07/22 02:37:27;;;;;;;7.20;4.80;;;;;;;19.36;67.18;99207.69;5075903;28;42911;-74
2022/07/22 02:39:55;;;;;;;4.33;3.93;;;;;;;19.35;67.35;99221.25;5092995;28;42235;-74
2022/07/22 02:42:24;;;;;;;4.27;3.87;;;;;;;19.06;66.62;99174.75;5075856;28;40106;-73
2022/07/22 02:44:54;;;;;;;3.60;3.30;;;;;;;19.29;66.61;99222.66;5075740;28;40937;-74
2022/07/22 02:47:22;;;;;;;4.43;4.03;;;;;;;19.27;66.46;99223.81;5075521;28;41792;-73
2022/07/22 02:49:49;;;;;;;4.13;3.73;;;;;;;19.23;66.33;99225.06;5075698;28;41326;-74
2022/07/22 02:52:17;;;;;;;3.93;3.53;;;;;;;19.20;65.92;99230.72;5075440;28;38927;-74
2022/07/22 02:54:45;;;;;;;5.27;3.90;;;;;;;19.17;66.60;99231.00;5092805;28;41725;-73
2022/07/22 02:57:13;;;;;;;3.97;3.57;;;;;;;19.10;66.53;99235.25;5092600;28;43305;-73
2022/07/22 02:59:41;;;;;;;4.13;3.80;;;;;;;19.10;66.14;99229.88;5092726;28;43276;-74
2022/07/22 03:02:10;;;;;;;5.23;3.73;;;;;;;19.07;66.69;99233.69;5092633;28;39771;-74
2022/07/22 03:04:38;;;;;;;4.30;3.90;;;;;;;19.03;66.88;99229.59;5075909;28;41964;-74
2022/07/22 03:07:06;;;;;;;4.43;4.03;;;;;;;19.00;67.17;99222.69;5092437;28;43712;-74
2022/07/22 03:09:34;;;;;;;4.53;4.13;;;;;;;18.97;67.44;99236.38;5075205;28;41849;-73
2022/07/22 03:12:03;;;;;;;4.30;3.90;;;;;;;18.95;67.49;99227.59;5075329;28;40888;-73
2022/07/22 03:14:30;;;;;;;4.40;4.00;;;;;;;18.93;67.44;99237.63;5092482;28;41828;-74
2022/07/22 03:16:58;;;;;;;4.27;3.60;;;;;;;18.91;67.62;99236.09;5092288;28;42796;-73
2022/07/22 03:19:27;;;;;;;4.70;3.93;;;;;;;18.88;67.66;99229.16;5075404;28;42778;-73
2022/07/22 03:21:57;;;;;;;3.90;3.43;;;;;;;18.85;67.49;99232.13;5089933;28;41047;-73
2022/07/22 03:24:25;;;;;;;3.83;3.43;;;;;;;18.83;67.97;99234.09;5074502;28;42451;-74
2022/07/22 03:26:53;;;;;;;3.70;3.40;;;;;;;18.80;67.99;99237.03;5075024;28;41714;-73
2022/07/22 03:29:21;;;;;;;3.93;3.60;;;;;;;18.79;67.86;99246.06;5092560;28;43192;-73
2022/07/22 03:31:49;;;;;;;3.70;3.40;;;;;;;18.78;67.70;99246.22;5092379;28;39944;-73
2022/07/22 03:34:22;;;;;;;3.90;3.60;;;;;;;18.77;68.31;99233.81;5088962;28;42149;-73
2022/07/22 03:37:00;;;;;;;4.00;3.53;;;;;;;18.74;68.30;99240.28;5074225;28;42742;-74
2022/07/22 03:39:27;;;;;;;4.03;3.50;;;;;;;18.73;68.30;99238.59;5093158;28;43271;-73
2022/07/22 03:41:56;;;;;;;4.30;3.90;;;;;;;18.71;68.33;99239.69;5092047;28;40986;-73
2022/07/22 03:44:25;;;;;;;4.23;3.70;;;;;;;18.69;68.00;99244.34;5091714;28;42716;-73
2022/07/22 03:46:52;;;;;;;3.87;3.57;;;;;;;18.67;67.91;99244.50;5091787;28;42460;-73
2022/07/22 03:49:20;;;;;;;3.80;3.50;;;;;;;18.67;67.33;99252.53;5074971;28;42366;-74
2022/07/22 03:51:48;;;;;;;3.23;3.00;;;;;;;18.39;67.14;99208.53;5091544;28;39979;-74
2022/07/22 03:54:17;;;;;;;3.53;3.23;;;;;;;18.64;67.56;99250.16;5091928;28;43185;-73
2022/07/22 03:56:45;;;;;;;3.47;3.17;;;;;;;18.59;67.03;99252.38;5091666;28;43654;-74
2022/07/22 03:59:13;;;;;;;3.23;3.03;;;;;;;18.61;67.15;99256.63;5091562;28;42187;-73
2022/07/22 04:01:40;;;;;;;4.03;3.73;;;;;;;18.61;67.03;99255.78;5091373;28;40981;-73
2022/07/22 04:04:11;;;;;;;3.70;3.37;;;;;;;18.61;67.17;99255.78;5074778;28;42460;-73
2022/07/22 04:06:42;;;;;;;3.60;3.30;;;;;;;18.61;67.40;99258.47;5089443;28;42869;-73
2022/07/22 04:09:20;;;;;;;4.10;3.70;;;;;;;18.61;67.15;99256.63;5074639;28;42185;-74
2022/07/22 04:11:50;;;;;;;3.57;3.27;;;;;;;18.63;67.50;99251.13;5074484;28;39148;-73
2022/07/22 04:14:19;;;;;;;3.93;3.60;;;;;;;18.64;67.13;99245.63;5074873;28;40273;-73
2022/07/22 04:16:47;;;;;;;3.50;3.20;;;;;;;18.67;67.46;99244.50;5091172;28;43809;-73
2022/07/22 04:19:15;;;;;;;3.73;3.33;;;;;;;18.69;67.04;99242.53;5074330;28;43064;-74
2022/07/22 04:21:52;;;;;;;4.60;4.17;;;;;;;18.72;66.99;99244.09;5074071;28;39694;-73
2022/07/22 04:24:24;;;;;;;5.00;3.90;;;;;;;18.78;67.96;99240.88;5073981;28;40819;-74
2022/07/22 04:26:52;;;;;;;4.40;4.00;;;;;;;18.81;68.27;99238.72;5073912;28;43072;-73
2022/07/22 04:29:21;;;;;;;4.20;3.90;;;;;;;18.87;68.22;99240.03;5073489;28;42474;-73
2022/07/22 04:31:49;;;;;;;4.80;4.40;;;;;;;18.91;69.05;99234.25;5092289;28;39615;-74
2022/07/22 04:34:19;;;;;;;4.47;4.07;;;;;;;18.95;69.08;99235.66;5074612;28;42119;-73
2022/07/22 04:36:49;;;;;;;5.27;4.40;;;;;;;19.00;68.63;99241.47;5074579;28;43784;-73
2022/07/22 04:39:17;;;;;;;4.53;4.13;;;;;;;19.07;68.09;99246.25;5091081;28;42335;-74
2022/07/22 04:41:53;;;;;;;4.33;3.93;;;;;;;19.14;68.57;99242.03;5089382;28;40711;-74
2022/07/22 04:44:21;;;;;;;4.23;3.83;;;;;;;19.22;68.51;99251.09;5090962;28;42830;-73
2022/07/22 04:46:49;;;;;;;4.37;3.97;;;;;;;19.30;68.01;99259.28;5090973;28;43700;-73
2022/07/22 04:49:17;;;;;;;4.63;4.23;;;;;;;19.38;68.04;99246.00;5090551;28;42265;-73
2022/07/22 04:51:45;;;;;;;5.00;4.47;;;;;;;19.40;68.59;99232.44;5073790;28;39568;-74
2022/07/22 04:54:17;;;;;;;5.63;4.43;;;;;;;19.53;68.92;99246.44;5087817;28;42442;-73
2022/07/22 04:56:46;;;;;;;4.13;3.73;;;;;;;19.60;68.11;99244.88;5074448;28;41806;-74
2022/07/22 04:59:16;;;;;;;3.70;3.27;;;;;;;19.69;68.40;99237.78;5090752;28;42085;-74
2022/07/22 05:01:44;;;;;;;5.40;4.30;;;;;;;19.78;68.23;99250.34;5091565;28;40892;-74
2022/07/22 05:04:11;;;;;;;5.13;4.63;;;;;;;19.86;68.04;99239.75;5073867;28;40643;-76
2022/07/22 05:06:42;;;;;;;4.43;4.03;;;;;;;19.87;68.33;99230.69;5088369;28;43826;-73
2022/07/22 05:09:10;;;;;;;4.87;4.33;;;;;;;20.02;68.23;99236.44;5090714;28;42325;-74
2022/07/22 05:11:37;;;;;;;4.60;4.20;;;;;;;20.10;67.95;99247.31;5092493;28;39763;-74
2022/07/22 05:14:05;;;;;;;4.27;3.87;;;;;;;20.20;67.65;99248.13;5090504;28;41865;-74
2022/07/22 05:16:36;;;;;;;5.17;4.33;;;;;;;20.28;67.50;99244.69;5073987;28;41759;-73
2022/07/22 05:19:05;;;;;;;4.73;4.33;;;;;;;20.34;67.16;99246.78;5087474;28;42232;-73
2022/07/22 05:21:34;;;;;;;4.40;4.00;;;;;;;20.46;66.81;99252.84;5091005;28;39690;-73
2022/07/22 05:24:03;;;;;;;5.07;4.07;;;;;;;20.54;66.59;99251.09;5091028;28;41533;-73
2022/07/22 05:26:33;;;;;;;3.83;3.53;;;;;;;20.57;66.56;99247.28;5090216;28;43491;-74
2022/07/22 05:29:00;;;;;;;4.33;3.80;;;;;;;20.70;66.21;99259.38;5073510;28;43134;-74
2022/07/22 05:31:30;;;;;;;4.50;4.10;;;;;;;20.78;66.27;99256.78;5073537;28;38850;-74
2022/07/22 05:33:59;;;;;;;4.07;3.53;;;;;;;20.87;65.94;99259.59;5090443;28;42639;-73
2022/07/22 05:36:33;;;;;;;4.90;3.93;;;;;;;20.94;65.76;99253.44;5087794;28;42443;-74
2022/07/22 05:39:00;;;;;;;4.43;3.87;;;;;;;21.03;65.51;99257.03;5090123;28;43049;-74
2022/07/22 05:41:29;;;;;;;4.50;4.10;;;;;;;21.12;65.42;99257.00;5090292;28;41538;-74
2022/07/22 05:43:57;;;;;;;4.03;3.63;;;;;;;21.23;64.99;99252.41;5073325;28;40902;-75
2022/07/22 05:46:25;;;;;;;3.90;3.50;;;;;;;21.26;64.40;99246.72;5073079;28;42613;-74
2022/07/22 05:48:54;;;;;;;4.03;3.63;;;;;;;21.43;64.73;99260.19;5072956;28;42665;-74
2022/07/22 05:51:25;;;;;;;4.63;4.13;;;;;;;21.51;64.09;99262.13;5072931;28;39113;-74
2022/07/22 05:53:53;;;;;;;4.33;4.00;;;;;;;21.60;64.06;99258.47;5073076;28;40507;-74
2022/07/22 05:56:20;;;;;;;3.70;3.40;;;;;;;21.72;63.65;99265.31;5072848;28;42803;-74
2022/07/22 05:58:50;;;;;;;4.30;3.90;;;;;;;21.79;63.28;99269.06;5090124;28;42159;-74
2022/07/22 06:01:17;;;;;;;4.77;3.43;;;;;;;21.88;62.89;99270.81;5093164;28;40019;-74
2022/07/22 06:03:45;;;;;;;4.40;4.00;;;;;;;21.97;62.80;99262.78;5094069;28;41516;-74
2022/07/22 06:06:15;;;;;;;4.03;3.53;;;;;;;22.09;62.36;99265.09;5076254;28;41623;-73
2022/07/22 06:08:45;;;;;;;3.87;3.50;;;;;;;22.21;61.86;99271.91;5076706;28;42768;-73
2022/07/22 06:11:13;;;;;;;4.23;3.80;;;;;;;22.29;61.65;99260.31;5093311;28;39778;-74
2022/07/22 06:13:41;;;;;;;4.40;3.90;;;;;;;22.48;61.08;99273.59;5093519;28;42592;-74
2022/07/22 06:16:09;;;;;;;3.73;3.43;;;;;;;22.57;60.84;99282.56;5093277;28;42701;-74
2022/07/22 06:18:41;;;;;;;3.87;3.57;;;;;;;22.68;60.54;99284.13;5076672;28;40958;-74
2022/07/22 06:21:09;;;;;;;3.60;3.30;;;;;;;22.80;60.02;99282.84;5093289;28;39952;-78
2022/07/22 06:23:37;;;;;;;3.90;3.60;;;;;;;22.90;59.37;99289.81;5088631;28;42742;-77
2022/07/22 06:26:07;;;;;;;3.33;3.03;;;;;;;22.92;59.07;99271.59;5073456;28;44753;-80
2022/07/22 06:28:36;;;;;;;3.53;3.23;;;;;;;23.13;58.56;99295.44;5089871;28;43253;-79
2022/07/22 06:31:05;;;;;;;5.13;3.30;;;;;;;23.06;58.37;99277.38;5091942;28;40850;-76
2022/07/22 06:33:34;;;;;;;4.20;3.80;;;;;;;23.26;58.57;99290.41;5072864;28;41757;-78
2022/07/22 06:36:02;;;;;;;3.60;3.30;;;;;;;23.37;58.57;99274.91;5075367;28;42761;-78
2022/07/22 06:38:31;;;;;;;4.50;3.40;;;;;;;23.52;57.86;99284.06;5076262;28;41818;-81
2022/07/22 06:41:20;;;;;;;4.17;3.50;;;;;;;23.60;56.94;99284.09;5088955;28;38951;-77
2022/07/22 06:44:14;;;;;;;3.63;3.10;;;;;;;23.72;56.73;99284.59;5092431;28;42099;-77
2022/07/22 06:47:02;;;;;;;3.80;3.50;;;;;;;23.80;57.02;99293.53;5076110;28;41439;-78
2022/07/22 06:49:30;;;;;;;4.20;3.13;;;;;;;23.87;56.73;99288.28;5075756;28;41280;-78
2022/07/22 06:51:58;;;;;;;3.23;3.03;;;;;;;23.88;56.15;99280.00;5093981;28;39959;-81
2022/07/22 06:54:26;;;;;;;4.30;2.70;;;;;;;24.14;55.49;99289.78;5092525;28;41653;-77
2022/07/22 06:56:57;;;;;;;3.20;3.00;;;;;;;24.30;55.04;99284.38;5092031;28;41803;-76
2022/07/22 06:59:30;;;;;;;4.70;3.23;;;;;;;24.46;54.89;99275.38;5075427;28;41238;-75
2022/07/22 07:01:59;;;;;;;2.80;2.60;;;;;;;24.67;54.28;99271.06;5075469;28;40149;-76
2022/07/22 07:04:27;;;;;;;3.20;2.93;;;;;;;24.99;53.46;99288.19;5075417;28;40741;-77
2022/07/22 07:06:56;;;;;;;3.77;3.30;;;;;;;25.10;53.31;99285.09;5092518;28;43701;-74
2022/07/22 07:09:50;;;;;;;3.53;3.23;;;;;;;25.25;52.20;99277.88;5089163;28;42175;-79
2022/07/22 07:12:32;;;;;;;4.63;3.63;;;;;;;25.54;51.68;99274.47;5109159;28;39190;-76
2022/07/22 07:15:09;;;;;;;3.30;3.00;;;;;;;25.75;51.00;99284.66;5090744;28;41731;-78
2022/07/22 07:17:37;;;;;;;3.50;3.20;;;;;;;25.84;51.07;99275.44;5092688;28;43645;-77
2022/07/22 07:20:08;;;;;;;3.00;2.70;;;;;;;26.04;50.71;99271.19;5091901;28;42226;-86
2022/07/22 07:22:36;;;;;;;3.17;2.87;;;;;;;26.34;50.16;99271.22;5093051;28;41074;-79
2022/07/22 07:25:05;;;;;;;2.77;2.47;;;;;;;26.60;49.72;99274.31;5075596;28;41136;-84
2022/07/22 07:27:36;;;;;;;3.27;3.07;;;;;;;26.93;48.65;99280.25;5092655;28;42852;-78
2022/07/22 07:30:08;;;;;;;2.80;2.60;;;;;;;27.30;47.58;99278.38;5088655;28;42103;-76
2022/07/22 07:32:36;;;;;;;2.90;2.70;;;;;;;27.76;46.74;99267.97;5091706;28;40503;-83
2022/07/22 07:35:05;;;;;;;2.90;2.70;;;;;;;28.60;45.09;99291.44;5092025;28;42672;-78
2022/07/22 07:37:33;;;;;;;3.50;3.20;;;;;;;29.49;42.22;99307.81;5092584;28;42697;-82
2022/07/22 07:40:01;;;;;;;3.40;3.10;;;;;;;30.25;40.49;99283.75;5092536;28;42053;-78
2022/07/22 07:42:29;;;;;;;3.03;2.80;;;;;;;30.88;40.41;99300.47;5075311;28;38834;-78
2022/07/22 07:44:58;;;;;;;3.60;3.13;;;;;;;31.15;39.94;99308.59;5091295;28;42445;-76
2022/07/22 07:47:26;;;;;;;3.50;3.20;;;;;;;31.33;39.05;99314.19;5108927;28;44743;-78
2022/07/22 07:49:54;;;;;;;3.57;3.00;;;;;;;31.72;37.76;99316.72;5074619;28;41397;-82
2022/07/22 07:52:23;;;;;;;4.37;3.17;;;;;;;32.58;36.45;99317.91;5075155;28;39408;-79
2022/07/22 07:54:50;;;;;;;3.33;3.03;;;;;;;32.87;35.69;99306.25;5092051;28;42761;-78
2022/07/22 07:57:18;;;;;;;3.57;3.23;;;;;;;32.94;36.15;99311.63;5057856;28;41875;-77
2022/07/22 07:59:46;;;;;;;3.10;2.80;;;;;;;32.76;35.50;99320.72;5092534;28;41955;-77
2022/07/22 08:02:16;;;;;;;3.17;2.90;;;;;;;32.53;35.29;99306.78;5074605;28;38762;-75
2022/07/22 08:04:43;;;;;;;3.33;3.03;;;;;;;32.39;35.77;99308.84;5125219;27;42100;-76
2022/07/22 08:07:15;;;;;;;2.77;2.57;;;;;;;32.54;36.29;99300.22;5090363;28;42741;-78
2022/07/22 08:09:45;;;;;;;3.17;2.97;;;;;;;33.22;35.09;99303.69;5073835;28;41525;-80
2022/07/22 08:12:21;;;;;;;3.03;2.83;;;;;;;33.95;33.71;99288.94;5074899;28;41268;-75
2022/07/22 08:15:19;;;;;;;3.00;2.80;;;;;;;35.12;32.44;99317.25;5074004;28;40551;-74
2022/07/22 08:17:52;;;;;;;3.70;3.40;;;;;;;35.01;31.51;99324.47;5091316;28;43716;-81
2022/07/22 08:20:20;;;;;;;3.33;3.10;;;;;;;34.59;32.96;99310.88;5091372;28;41980;-81
2022/07/22 08:22:47;;;;;;;3.10;2.90;;;;;;;34.48;32.63;99314.47;5074183;28;40408;-79
2022/07/22 08:25:15;;;;;;;3.60;3.03;;;;;;;34.99;31.59;99303.78;5091095;28;42722;-79
2022/07/22 08:27:43;;;;;;;3.90;3.50;;;;;;;35.98;30.65;99325.31;5074065;28;41683;-78
2022/07/22 08:30:12;;;;;;;3.60;3.30;;;;;;;36.89;30.00;99325.13;5090909;28;42963;-76
2022/07/22 08:32:40;;;;;;;3.30;3.10;;;;;;;37.60;28.71;99321.31;5091292;28;41454;-79
2022/07/22 08:35:11;;;;;;;3.30;3.07;;;;;;;38.05;27.38;99334.81;5091011;28;41682;-84
2022/07/22 08:37:39;;;;;;;3.30;3.10;;;;;;;38.28;27.57;99332.78;5073947;28;41990;-82
2022/07/22 08:40:08;;;;;;;3.37;3.17;;;;;;;38.28;27.54;99318.97;5090952;28;42449;-80
2022/07/22 08:42:39;;;;;;;3.30;3.00;;;;;;;38.61;27.51;99315.91;5091041;28;39156;-77
2022/07/22 08:45:08;;;;;;;3.35;3.15;;;;;;;39.19;26.97;99294.63;5090919;28;41347;-78
2022/07/22 08:47:36;;;;;;;3.08;2.88;;;;;;;40.22;24.89;99337.00;5075015;28;42437;-80
2022/07/22 08:50:26;;;;;;;3.28;3.08;;;;;;;41.32;23.66;99333.47;5092320;28;42350;-81
2022/07/22 08:53:04;;;;;;;2.80;2.60;;;;;;;42.35;23.37;99328.91;5073743;28;40950;-79
2022/07/22 08:55:33;;;;;;;3.00;2.80;;;;;;;43.19;21.73;99333.09;5090227;28;41773;-78
2022/07/22 08:58:00;;;;;;;3.53;3.33;;;;;;;43.11;21.67;99330.94;5090516;28;43756;-77
2022/07/22 09:00:28;;;;;;;3.75;3.38;;;;;;;41.93;22.48;99327.56;5069536;28;40717;-78
2022/07/22 09:02:56;;;;;;;2.92;2.72;;;;;;;40.43;24.08;99310.06;5053602;28;39862;-78
2022/07/22 09:05:34;;;;;;;3.95;3.60;;;;;;;39.38;25.38;99298.56;5079177;28;41502;-77
2022/07/22 09:08:04;;;;;;;3.85;3.55;;;;;;;38.55;26.64;99288.47;5074477;28;42778;-76
2022/07/22 09:10:42;;;;;;;4.10;3.80;;;;;;;37.99;27.30;99277.75;5110877;27;42306;-77
2022/07/22 09:13:35;;;;;;;3.35;3.05;;;;;;;37.44;27.31;99280.81;5069928;28;38244;-78
2022/07/22 09:16:40;;;;;;;4.13;3.83;;;;;;;37.04;27.74;99275.63;5065322;28;41805;-76
2022/07/22 09:19:32;;;;;;;3.40;3.10;;;;;;;36.62;28.10;99273.38;5070147;28;42622;-76
2022/07/22 09:22:48;;;;;;;3.37;3.17;;;;;;;36.30;28.89;99266.84;5054445;28;42074;-79
2022/07/22 09:25:31;;;;;;;4.00;3.63;;;;;;;36.12;28.66;99254.13;5063425;28;40145;-80
2022/07/22 09:28:20;;;;;;;3.50;3.30;;;;;;;36.22;28.33;99281.91;5091262;28;41096;-82
2022/07/22 09:31:26;;;;;;;3.80;3.50;;;;;;;36.22;28.74;99261.78;5088606;28;42553;-81
2022/07/22 09:33:57;;;;;;;4.30;3.57;;;;;;;35.91;29.20;99258.47;5071083;28;43186;-78
2022/07/22 09:36:29;;;;;;;4.17;3.43;;;;;;;35.52;30.05;99243.72;5072853;28;39024;-79
2022/07/22 09:38:59;;;;;;;3.77;3.40;;;;;;;35.80;28.93;99261.31;5072976;28;42974;-80
2022/07/22 09:41:26;;;;;;;3.60;3.30;;;;;;;36.00;28.55;99242.34;5089681;28;44537;-85
2022/07/22 09:43:54;;;;;;;4.70;4.03;;;;;;;35.90;28.39;99234.75;5090681;28;42256;-83
2022/07/22 09:46:37;;;;;;;4.40;4.07;;;;;;;36.23;28.13;99263.41;5089824;28;39927;-77
2022/07/22 09:49:32;;;;;;;3.70;3.40;;;;;;;36.39;28.11;99254.28;5088755;28;42175;-78
2022/07/22 09:52:21;;;;;;;4.00;3.70;;;;;;;36.21;27.74;99263.66;5091031;28;42453;-75
2022/07/22 09:55:06;;;;;;;4.13;3.83;;;;;;;36.46;27.89;99249.44;5086898;28;42344;-81
2022/07/22 09:57:34;;;;;;;4.00;3.70;;;;;;;38.01;26.17;99249.84;5090394;28;40609;-81
2022/07/22 10:00:02;;;;;;;4.20;3.80;;;;;;;39.49;23.81;99274.50;5072645;28;40938;-81
2022/07/22 10:02:47;;;;;;;3.95;3.60;;;;;;;39.97;22.95;99284.25;5090008;28;43195;-81
2022/07/22 10:05:18;;;;;;;4.10;3.80;;;;;;;39.71;22.80;99277.00;5072755;28;41013;-77
2022/07/22 10:07:46;;;;;;;4.30;4.00;;;;;;;39.13;23.63;99266.06;5124411;27;39684;-84
2022/07/22 10:10:18;;;;;;;4.47;4.13;;;;;;;38.59;24.25;99268.25;5072379;28;42562;-77
2022/07/22 10:12:49;;;;;;;4.83;3.30;;;;;;;38.04;24.88;99249.31;5088875;28;42793;-80
2022/07/22 10:15:18;;;;;;;4.50;3.97;;;;;;;38.01;25.07;99255.38;5072461;28;40841;-77
2022/07/22 10:17:49;;;;;;;5.28;3.85;;;;;;;38.24;24.49;99245.88;5072397;28;40092;-77
2022/07/22 10:20:19;;;;;;;4.35;3.92;;;;;;;38.67;24.35;99253.09;5071646;28;41866;-77
2022/07/22 10:22:52;;;;;;;3.78;3.47;;;;;;;39.59;23.22;99254.25;5072468;28;43280;-79
2022/07/22 10:25:24;;;;;;;4.50;4.18;;;;;;;40.34;22.35;99249.84;5086418;28;42253;-80
2022/07/22 10:27:57;;;;;;;4.45;3.78;;;;;;;41.15;21.53;99255.19;5089090;28;39966;-79
2022/07/22 10:30:28;;;;;;;5.65;3.65;;;;;;;42.02;20.72;99247.94;5072615;28;42219;-80
2022/07/22 10:33:11;;;;;;;4.60;4.20;;;;;;;42.15;20.78;99250.03;5090731;28;42729;-81
2022/07/22 10:35:53;;;;;;;4.35;3.95;;;;;;;41.77;20.96;99256.47;5106293;28;42396;-80
2022/07/22 10:38:22;;;;;;;4.13;3.83;;;;;;;41.33;21.55;99229.47;5086441;28;40894;-81
2022/07/22 10:40:54;;;;;;;4.40;4.07;;;;;;;41.19;21.47;99240.41;5088878;28;41531;-79
2022/07/22 10:43:23;;;;;;;4.35;4.03;;;;;;;41.89;21.02;99232.72;5087431;28;43781;-78
2022/07/22 10:45:53;;;;;;;4.03;3.80;;;;;;;42.02;20.39;99247.94;5090886;28;42416;-78
2022/07/22 10:48:23;;;;;;;4.22;3.92;;;;;;;41.73;21.20;99236.72;5109949;28;39996;-77
2022/07/22 10:51:09;;;;;;;4.47;4.00;;;;;;;41.27;21.72;99235.38;5092073;28;40455;-77
2022/07/22 10:53:42;;;;;;;4.63;4.22;;;;;;;40.81;21.83;99233.63;5121765;27;43498;-79
2022/07/22 10:56:33;;;;;;;5.32;4.13;;;;;;;40.72;21.78;99229.78;5090746;28;42402;-77
2022/07/22 10:59:11;;;;;;;4.70;4.30;;;;;;;40.71;21.96;99221.72;5080140;28;40748;-78
2022/07/22 11:01:40;;;;;;;5.50;4.97;;;;;;;40.78;21.84;99216.72;5090878;28;41562;-80
2022/07/22 11:04:10;;;;;;;4.70;4.30;;;;;;;40.90;21.84;99204.16;5092735;28;42726;-77
2022/07/22 11:06:37;;;;;;;4.70;4.40;;;;;;;41.07;21.45;99214.03;5092499;28;45536;-77
2022/07/22 11:09:10;;;;;;;4.60;4.30;;;;;;;41.11;21.71;99209.59;5075720;28;39204;-77
2022/07/22 11:11:44;;;;;;;4.82;4.43;;;;;;;41.04;21.79;99207.13;5090784;28;41585;-79
2022/07/22 11:14:16;;;;;;;6.53;4.13;;;;;;;40.99;21.87;99211.88;5089488;28;43807;-81
2022/07/22 11:16:46;;;;;;;4.47;4.07;;;;;;;40.68;21.64;99189.75;5090632;28;41106;-81
2022/07/22 11:19:14;;;;;;;4.72;4.32;;;;;;;40.40;22.03;99193.22;5084780;28;41669;-79
2022/07/22 11:21:42;;;;;;;5.47;4.68;;;;;;;40.16;22.10;99193.81;5090892;28;41796;-79
2022/07/22 11:24:10;;;;;;;4.32;3.92;;;;;;;40.08;22.45;99186.03;5093069;28;43488;-78
2022/07/22 11:26:44;;;;;;;4.60;4.20;;;;;;;39.92;22.43;99186.34;5074273;28;41542;-77
2022/07/22 11:29:16;;;;;;;5.10;4.60;;;;;;;39.76;23.36;99177.19;5092430;28;40488;-82
2022/07/22 11:31:44;;;;;;;4.47;4.18;;;;;;;39.70;23.34;99173.56;5090760;28;42719;-76
2022/07/22 11:34:15;;;;;;;4.93;4.53;;;;;;;39.59;22.74;99176.63;5091815;28;42709;-75
2022/07/22 11:36:44;;;;;;;4.72;4.30;;;;;;;39.53;23.17;99177.75;5074753;28;42697;-81
2022/07/22 11:39:13;;;;;;;4.75;4.35;;;;;;;39.80;23.00;99167.19;5092202;28;40066;-75
2022/07/22 11:41:43;;;;;;;4.55;4.25;;;;;;;40.18;22.68;99161.03;5091129;28;43136;-79
2022/07/22 11:44:10;;;;;;;5.10;4.68;;;;;;;40.44;21.95;99166.53;5092159;28;42881;-79
2022/07/22 11:46:39;;;;;;;4.65;4.35;;;;;;;40.22;21.57;99162.13;5092713;28;42267;-77
2022/07/22 11:49:08;;;;;;;4.35;3.95;;;;;;;40.37;21.80;99158.50;5085335;28;40691;-79
2022/07/22 11:51:38;;;;;;;4.40;4.07;;;;;;;41.34;21.59;99158.84;5090510;28;43079;-81